sensor_id;sensor_type;location;lat;lon;timestamp;P1;durP1;ratioP1;P2;durP2;ratioP2
11823;SDS011;5969;50.780;7.726;2022-10-17T00:00:18;6.10;;;3.65;;
11823;SDS011;5969;50.780;7.726;2022-10-17T00:02:44;5.55;;;3.53;;
11823;SDS011;5969;50.780;7.726;2022-10-17T00:05:11;4.10;;;3.20;;
11823;SDS011;5969;50.780;7.726;2022-10-17T00:07:38;4.30;;;3.58;;
11823;SDS011;5969;50.780;7.726;2022-10-17T00:10:07;7.07;;;3.92;;
11823;SDS011;5969;50.780;7.726;2022-10-17T00:12:34;4.07;;;3.63;;
11823;SDS011;5969;50.780;7.726;2022-10-17T00:15:01;5.07;;;4.00;;
11823;SDS011;5969;50.780;7.726;2022-10-17T00:17:29;4.40;;;3.95;;
11823;SDS011;5969;50.780;7.726;2022-10-17T00:19:57;5.93;;;4.10;;
11823;SDS011;5969;50.780;7.726;2022-10-17T00:22:24;5.00;;;3.30;;
11823;SDS011;5969;50.780;7.726;2022-10-17T00:24:50;4.03;;;3.63;;
11823;SDS011;5969;50.780;7.726;2022-10-17T00:27:19;5.70;;;3.42;;
11823;SDS011;5969;50.780;7.726;2022-10-17T00:29:46;5.10;;;3.33;;
11823;SDS011;5969;50.780;7.726;2022-10-17T00:32:14;6.55;;;3.20;;
11823;SDS011;5969;50.780;7.726;2022-10-17T00:34:40;4.03;;;3.20;;
11823;SDS011;5969;50.780;7.726;2022-10-17T00:37:07;5.18;;;3.65;;
11823;SDS011;5969;50.780;7.726;2022-10-17T00:39:34;3.78;;;3.47;;
11823;SDS011;5969;50.780;7.726;2022-10-17T00:42:01;4.32;;;3.22;;
11823;SDS011;5969;50.780;7.726;2022-10-17T00:47:30;4.57;;;3.15;;
11823;SDS011;5969;50.780;7.726;2022-10-17T00:49:58;3.72;;;3.40;;
11823;SDS011;5969;50.780;7.726;2022-10-17T00:52:26;3.42;;;3.13;;
11823;SDS011;5969;50.780;7.726;2022-10-17T00:54:56;5.45;;;3.35;;
11823;SDS011;5969;50.780;7.726;2022-10-17T00:57:26;4.28;;;3.40;;
11823;SDS011;5969;50.780;7.726;2022-10-17T00:59:56;5.40;;;3.42;;
11823;SDS011;5969;50.780;7.726;2022-10-17T01:02:27;4.25;;;3.30;;
11823;SDS011;5969;50.780;7.726;2022-10-17T01:04:54;4.65;;;3.60;;
11823;SDS011;5969;50.780;7.726;2022-10-17T01:07:24;4.88;;;3.40;;
11823;SDS011;5969;50.780;7.726;2022-10-17T01:09:52;4.00;;;3.60;;
11823;SDS011;5969;50.780;7.726;2022-10-17T01:12:21;6.75;;;3.65;;
11823;SDS011;5969;50.780;7.726;2022-10-17T01:14:55;3.92;;;3.42;;
11823;SDS011;5969;50.780;7.726;2022-10-17T01:17:31;4.35;;;3.60;;
11823;SDS011;5969;50.780;7.726;2022-10-17T01:23:14;3.92;;;3.58;;
11823;SDS011;5969;50.780;7.726;2022-10-17T01:25:54;7.75;;;3.13;;
11823;SDS011;5969;50.780;7.726;2022-10-17T01:28:33;4.85;;;3.20;;
11823;SDS011;5969;50.780;7.726;2022-10-17T01:31:31;3.60;;;3.22;;
11823;SDS011;5969;50.780;7.726;2022-10-17T01:34:03;6.03;;;4.15;;
11823;SDS011;5969;50.780;7.726;2022-10-17T01:36:37;6.85;;;3.50;;
11823;SDS011;5969;50.780;7.726;2022-10-17T01:39:11;6.35;;;4.05;;
11823;SDS011;5969;50.780;7.726;2022-10-17T01:41:45;4.03;;;3.55;;
11823;SDS011;5969;50.780;7.726;2022-10-17T01:44:18;5.20;;;3.63;;
11823;SDS011;5969;50.780;7.726;2022-10-17T01:46:49;5.13;;;3.63;;
11823;SDS011;5969;50.780;7.726;2022-10-17T01:49:23;4.47;;;3.40;;
11823;SDS011;5969;50.780;7.726;2022-10-17T01:51:55;6.70;;;3.80;;
11823;SDS011;5969;50.780;7.726;2022-10-17T01:54:26;5.75;;;3.92;;
11823;SDS011;5969;50.780;7.726;2022-10-17T01:56:58;7.80;;;4.07;;
11823;SDS011;5969;50.780;7.726;2022-10-17T01:59:29;5.82;;;3.75;;
11823;SDS011;5969;50.780;7.726;2022-10-17T02:02:02;6.20;;;3.50;;
11823;SDS011;5969;50.780;7.726;2022-10-17T02:04:31;5.88;;;3.67;;
11823;SDS011;5969;50.780;7.726;2022-10-17T02:07:04;8.07;;;4.03;;
11823;SDS011;5969;50.780;7.726;2022-10-17T02:09:31;4.55;;;3.90;;
11823;SDS011;5969;50.780;7.726;2022-10-17T02:12:03;5.70;;;4.10;;
11823;SDS011;5969;50.780;7.726;2022-10-17T02:14:44;5.32;;;3.58;;
11823;SDS011;5969;50.780;7.726;2022-10-17T02:17:29;4.30;;;3.80;;
11823;SDS011;5969;50.780;7.726;2022-10-17T02:20:09;4.13;;;3.10;;
11823;SDS011;5969;50.780;7.726;2022-10-17T02:22:42;4.50;;;3.20;;
11823;SDS011;5969;50.780;7.726;2022-10-17T02:25:17;5.35;;;3.35;;
11823;SDS011;5969;50.780;7.726;2022-10-17T02:27:51;4.28;;;3.88;;
11823;SDS011;5969;50.780;7.726;2022-10-17T02:30:26;4.60;;;3.78;;
11823;SDS011;5969;50.780;7.726;2022-10-17T02:33:01;4.22;;;3.50;;
11823;SDS011;5969;50.780;7.726;2022-10-17T02:35:33;4.78;;;3.72;;
11823;SDS011;5969;50.780;7.726;2022-10-17T02:38:05;4.85;;;3.63;;
11823;SDS011;5969;50.780;7.726;2022-10-17T02:40:34;4.65;;;3.95;;
11823;SDS011;5969;50.780;7.726;2022-10-17T02:43:02;5.05;;;4.30;;
11823;SDS011;5969;50.780;7.726;2022-10-17T02:45:31;5.78;;;3.97;;
11823;SDS011;5969;50.780;7.726;2022-10-17T02:48:03;4.22;;;3.80;;
11823;SDS011;5969;50.780;7.726;2022-10-17T02:50:34;6.00;;;3.75;;
11823;SDS011;5969;50.780;7.726;2022-10-17T02:53:07;5.63;;;3.78;;
11823;SDS011;5969;50.780;7.726;2022-10-17T02:55:40;5.68;;;3.38;;
11823;SDS011;5969;50.780;7.726;2022-10-17T02:58:12;6.80;;;3.97;;
11823;SDS011;5969;50.780;7.726;2022-10-17T03:00:43;6.50;;;4.72;;
11823;SDS011;5969;50.780;7.726;2022-10-17T03:03:18;5.07;;;3.97;;
11823;SDS011;5969;50.780;7.726;2022-10-17T03:05:47;4.43;;;4.03;;
11823;SDS011;5969;50.780;7.726;2022-10-17T03:08:14;4.40;;;4.00;;
11823;SDS011;5969;50.780;7.726;2022-10-17T03:10:41;4.47;;;4.07;;
11823;SDS011;5969;50.780;7.726;2022-10-17T03:13:08;4.20;;;3.80;;
11823;SDS011;5969;50.780;7.726;2022-10-17T03:15:35;4.15;;;3.75;;
11823;SDS011;5969;50.780;7.726;2022-10-17T03:18:02;4.63;;;4.22;;
11823;SDS011;5969;50.780;7.726;2022-10-17T03:20:30;7.95;;;4.07;;
11823;SDS011;5969;50.780;7.726;2022-10-17T03:22:57;7.72;;;4.03;;
11823;SDS011;5969;50.780;7.726;2022-10-17T03:25:24;4.43;;;3.72;;
11823;SDS011;5969;50.780;7.726;2022-10-17T03:27:51;5.35;;;3.88;;
11823;SDS011;5969;50.780;7.726;2022-10-17T03:30:18;4.82;;;3.65;;
11823;SDS011;5969;50.780;7.726;2022-10-17T03:32:45;6.80;;;3.78;;
11823;SDS011;5969;50.780;7.726;2022-10-17T03:35:12;5.20;;;4.18;;
11823;SDS011;5969;50.780;7.726;2022-10-17T03:37:40;6.75;;;3.97;;
11823;SDS011;5969;50.780;7.726;2022-10-17T03:40:07;7.32;;;3.92;;
11823;SDS011;5969;50.780;7.726;2022-10-17T03:42:34;6.78;;;3.60;;
11823;SDS011;5969;50.780;7.726;2022-10-17T03:45:01;6.18;;;3.50;;
11823;SDS011;5969;50.780;7.726;2022-10-17T03:47:28;8.93;;;3.88;;
11823;SDS011;5969;50.780;7.726;2022-10-17T03:49:55;5.13;;;3.75;;
11823;SDS011;5969;50.780;7.726;2022-10-17T03:52:22;6.00;;;3.67;;
11823;SDS011;5969;50.780;7.726;2022-10-17T03:54:50;6.88;;;3.63;;
11823;SDS011;5969;50.780;7.726;2022-10-17T03:57:17;4.43;;;3.55;;
11823;SDS011;5969;50.780;7.726;2022-10-17T03:59:43;8.93;;;6.20;;
11823;SDS011;5969;50.780;7.726;2022-10-17T04:02:10;9.38;;;5.32;;
11823;SDS011;5969;50.780;7.726;2022-10-17T04:04:37;7.25;;;6.15;;
11823;SDS011;5969;50.780;7.726;2022-10-17T04:07:04;6.03;;;3.85;;
11823;SDS011;5969;50.780;7.726;2022-10-17T04:09:31;6.00;;;3.80;;
11823;SDS011;5969;50.780;7.726;2022-10-17T04:11:59;6.18;;;4.40;;
11823;SDS011;5969;50.780;7.726;2022-10-17T04:14:26;4.95;;;4.07;;
11823;SDS011;5969;50.780;7.726;2022-10-17T04:16:52;4.72;;;4.15;;
11823;SDS011;5969;50.780;7.726;2022-10-17T04:19:19;6.97;;;3.88;;
11823;SDS011;5969;50.780;7.726;2022-10-17T04:21:46;5.95;;;4.32;;
11823;SDS011;5969;50.780;7.726;2022-10-17T04:24:13;9.43;;;8.52;;
11823;SDS011;5969;50.780;7.726;2022-10-17T04:26:40;8.18;;;7.47;;
11823;SDS011;5969;50.780;7.726;2022-10-17T04:29:08;8.20;;;7.07;;
11823;SDS011;5969;50.780;7.726;2022-10-17T04:31:35;7.93;;;6.05;;
11823;SDS011;5969;50.780;7.726;2022-10-17T04:34:02;5.68;;;4.25;;
11823;SDS011;5969;50.780;7.726;2022-10-17T04:36:29;4.82;;;4.32;;
11823;SDS011;5969;50.780;7.726;2022-10-17T04:38:56;4.63;;;4.10;;
11823;SDS011;5969;50.780;7.726;2022-10-17T04:41:23;4.88;;;3.85;;
11823;SDS011;5969;50.780;7.726;2022-10-17T04:43:50;8.15;;;3.83;;
11823;SDS011;5969;50.780;7.726;2022-10-17T04:46:18;4.78;;;4.10;;
11823;SDS011;5969;50.780;7.726;2022-10-17T04:48:44;5.55;;;3.63;;
11823;SDS011;5969;50.780;7.726;2022-10-17T04:51:12;5.38;;;3.83;;
11823;SDS011;5969;50.780;7.726;2022-10-17T04:53:40;7.47;;;4.50;;
11823;SDS011;5969;50.780;7.726;2022-10-17T04:56:08;6.22;;;4.13;;
11823;SDS011;5969;50.780;7.726;2022-10-17T04:58:37;4.55;;;3.45;;
11823;SDS011;5969;50.780;7.726;2022-10-17T05:01:05;7.00;;;4.32;;
11823;SDS011;5969;50.780;7.726;2022-10-17T05:03:34;5.15;;;3.72;;
11823;SDS011;5969;50.780;7.726;2022-10-17T05:06:05;5.32;;;3.58;;
11823;SDS011;5969;50.780;7.726;2022-10-17T05:08:32;10.02;;;7.13;;
11823;SDS011;5969;50.780;7.726;2022-10-17T05:11:00;6.13;;;4.97;;
11823;SDS011;5969;50.780;7.726;2022-10-17T05:13:27;9.15;;;4.50;;
11823;SDS011;5969;50.780;7.726;2022-10-17T05:15:57;7.47;;;3.65;;
11823;SDS011;5969;50.780;7.726;2022-10-17T05:18:24;4.57;;;3.60;;
11823;SDS011;5969;50.780;7.726;2022-10-17T05:20:53;7.43;;;3.75;;
11823;SDS011;5969;50.780;7.726;2022-10-17T05:23:20;5.45;;;3.70;;
11823;SDS011;5969;50.780;7.726;2022-10-17T05:25:47;4.90;;;3.55;;
11823;SDS011;5969;50.780;7.726;2022-10-17T05:28:19;5.55;;;3.78;;
11823;SDS011;5969;50.780;7.726;2022-10-17T05:30:46;5.40;;;4.03;;
11823;SDS011;5969;50.780;7.726;2022-10-17T05:33:13;4.32;;;3.70;;
11823;SDS011;5969;50.780;7.726;2022-10-17T05:35:40;6.03;;;4.03;;
11823;SDS011;5969;50.780;7.726;2022-10-17T05:38:08;4.40;;;4.00;;
11823;SDS011;5969;50.780;7.726;2022-10-17T05:40:35;4.38;;;3.80;;
11823;SDS011;5969;50.780;7.726;2022-10-17T05:43:03;4.53;;;4.13;;
11823;SDS011;5969;50.780;7.726;2022-10-17T05:45:30;5.47;;;4.45;;
11823;SDS011;5969;50.780;7.726;2022-10-17T05:47:57;4.85;;;4.05;;
11823;SDS011;5969;50.780;7.726;2022-10-17T05:50:24;5.25;;;4.85;;
11823;SDS011;5969;50.780;7.726;2022-10-17T05:52:51;6.00;;;4.75;;
11823;SDS011;5969;50.780;7.726;2022-10-17T05:55:21;5.50;;;4.53;;
11823;SDS011;5969;50.780;7.726;2022-10-17T05:57:48;5.05;;;4.55;;
11823;SDS011;5969;50.780;7.726;2022-10-17T06:00:16;9.60;;;4.60;;
11823;SDS011;5969;50.780;7.726;2022-10-17T06:02:44;5.07;;;4.25;;
11823;SDS011;5969;50.780;7.726;2022-10-17T06:05:11;6.85;;;3.95;;
11823;SDS011;5969;50.780;7.726;2022-10-17T06:07:38;6.85;;;5.40;;
11823;SDS011;5969;50.780;7.726;2022-10-17T06:10:05;9.27;;;5.20;;
11823;SDS011;5969;50.780;7.726;2022-10-17T06:12:34;5.20;;;4.70;;
11823;SDS011;5969;50.780;7.726;2022-10-17T06:15:01;6.10;;;4.18;;
11823;SDS011;5969;50.780;7.726;2022-10-17T06:17:28;7.18;;;4.40;;
11823;SDS011;5969;50.780;7.726;2022-10-17T06:19:54;4.30;;;3.90;;
11823;SDS011;5969;50.780;7.726;2022-10-17T06:22:22;7.15;;;4.40;;
11823;SDS011;5969;50.780;7.726;2022-10-17T06:24:49;6.60;;;4.30;;
11823;SDS011;5969;50.780;7.726;2022-10-17T06:27:16;5.00;;;4.18;;
11823;SDS011;5969;50.780;7.726;2022-10-17T06:29:45;5.28;;;3.70;;
11823;SDS011;5969;50.780;7.726;2022-10-17T06:32:12;5.40;;;3.70;;
11823;SDS011;5969;50.780;7.726;2022-10-17T06:34:39;8.20;;;4.63;;
11823;SDS011;5969;50.780;7.726;2022-10-17T06:37:06;4.65;;;3.67;;
11823;SDS011;5969;50.780;7.726;2022-10-17T06:39:33;6.18;;;3.92;;
11823;SDS011;5969;50.780;7.726;2022-10-17T06:42:00;5.97;;;3.95;;
11823;SDS011;5969;50.780;7.726;2022-10-17T06:44:28;5.25;;;3.55;;
11823;SDS011;5969;50.780;7.726;2022-10-17T06:46:57;4.72;;;3.92;;
11823;SDS011;5969;50.780;7.726;2022-10-17T06:49:24;5.22;;;3.47;;
11823;SDS011;5969;50.780;7.726;2022-10-17T06:51:52;3.72;;;3.42;;
11823;SDS011;5969;50.780;7.726;2022-10-17T06:54:19;4.43;;;3.40;;
11823;SDS011;5969;50.780;7.726;2022-10-17T06:56:46;3.58;;;3.25;;
11823;SDS011;5969;50.780;7.726;2022-10-17T06:59:13;9.23;;;4.00;;
11823;SDS011;5969;50.780;7.726;2022-10-17T07:01:40;3.80;;;3.50;;
11823;SDS011;5969;50.780;7.726;2022-10-17T07:04:09;6.20;;;3.85;;
11823;SDS011;5969;50.780;7.726;2022-10-17T07:06:36;5.05;;;3.90;;
11823;SDS011;5969;50.780;7.726;2022-10-17T07:09:04;9.95;;;3.85;;
11823;SDS011;5969;50.780;7.726;2022-10-17T07:11:32;6.80;;;3.88;;
11823;SDS011;5969;50.780;7.726;2022-10-17T07:14:00;3.88;;;3.50;;
11823;SDS011;5969;50.780;7.726;2022-10-17T07:16:27;4.57;;;3.38;;
11823;SDS011;5969;50.780;7.726;2022-10-17T07:18:55;3.95;;;3.33;;
11823;SDS011;5969;50.780;7.726;2022-10-17T07:21:23;5.60;;;3.83;;
11823;SDS011;5969;50.780;7.726;2022-10-17T07:23:50;8.50;;;4.10;;
11823;SDS011;5969;50.780;7.726;2022-10-17T07:26:17;7.80;;;3.85;;
11823;SDS011;5969;50.780;7.726;2022-10-17T07:28:45;3.60;;;3.30;;
11823;SDS011;5969;50.780;7.726;2022-10-17T07:31:16;6.05;;;3.58;;
11823;SDS011;5969;50.780;7.726;2022-10-17T07:33:44;6.72;;;3.60;;
11823;SDS011;5969;50.780;7.726;2022-10-17T07:36:12;3.65;;;3.33;;
11823;SDS011;5969;50.780;7.726;2022-10-17T07:38:40;4.15;;;3.47;;
11823;SDS011;5969;50.780;7.726;2022-10-17T07:41:08;6.43;;;3.47;;
11823;SDS011;5969;50.780;7.726;2022-10-17T07:43:36;7.13;;;3.45;;
11823;SDS011;5969;50.780;7.726;2022-10-17T07:46:07;10.75;;;3.20;;
11823;SDS011;5969;50.780;7.726;2022-10-17T07:48:35;6.68;;;3.38;;
11823;SDS011;5969;50.780;7.726;2022-10-17T07:51:03;7.93;;;3.65;;
11823;SDS011;5969;50.780;7.726;2022-10-17T07:53:31;5.10;;;3.58;;
11823;SDS011;5969;50.780;7.726;2022-10-17T07:56:03;7.28;;;3.40;;
11823;SDS011;5969;50.780;7.726;2022-10-17T07:58:31;6.38;;;3.30;;
11823;SDS011;5969;50.780;7.726;2022-10-17T08:00:59;4.93;;;3.42;;
11823;SDS011;5969;50.780;7.726;2022-10-17T08:03:27;6.25;;;3.22;;
11823;SDS011;5969;50.780;7.726;2022-10-17T08:05:56;4.43;;;3.22;;
11823;SDS011;5969;50.780;7.726;2022-10-17T08:08:23;6.20;;;3.58;;
11823;SDS011;5969;50.780;7.726;2022-10-17T08:10:50;5.03;;;2.92;;
11823;SDS011;5969;50.780;7.726;2022-10-17T08:13:19;5.30;;;2.85;;
11823;SDS011;5969;50.780;7.726;2022-10-17T08:15:47;4.88;;;3.50;;
11823;SDS011;5969;50.780;7.726;2022-10-17T08:18:13;4.13;;;2.60;;
11823;SDS011;5969;50.780;7.726;2022-10-17T08:20:41;6.20;;;3.38;;
11823;SDS011;5969;50.780;7.726;2022-10-17T08:23:08;7.38;;;2.97;;
11823;SDS011;5969;50.780;7.726;2022-10-17T08:25:36;4.63;;;3.00;;
11823;SDS011;5969;50.780;7.726;2022-10-17T08:28:04;4.50;;;2.95;;
11823;SDS011;5969;50.780;7.726;2022-10-17T08:30:32;6.03;;;3.08;;
11823;SDS011;5969;50.780;7.726;2022-10-17T08:32:59;4.60;;;3.17;;
11823;SDS011;5969;50.780;7.726;2022-10-17T08:35:26;3.70;;;2.90;;
11823;SDS011;5969;50.780;7.726;2022-10-17T08:37:54;6.07;;;2.80;;
11823;SDS011;5969;50.780;7.726;2022-10-17T08:40:21;6.60;;;3.30;;
11823;SDS011;5969;50.780;7.726;2022-10-17T08:43:01;9.07;;;3.22;;
11823;SDS011;5969;50.780;7.726;2022-10-17T08:45:38;7.25;;;2.58;;
11823;SDS011;5969;50.780;7.726;2022-10-17T08:48:09;5.20;;;2.70;;
11823;SDS011;5969;50.780;7.726;2022-10-17T08:50:41;8.20;;;2.90;;
11823;SDS011;5969;50.780;7.726;2022-10-17T08:53:14;5.68;;;2.80;;
11823;SDS011;5969;50.780;7.726;2022-10-17T08:55:46;2.80;;;2.60;;
11823;SDS011;5969;50.780;7.726;2022-10-17T08:58:16;5.32;;;2.80;;
11823;SDS011;5969;50.780;7.726;2022-10-17T09:00:47;4.68;;;2.85;;
11823;SDS011;5969;50.780;7.726;2022-10-17T09:03:25;5.22;;;2.70;;
11823;SDS011;5969;50.780;7.726;2022-10-17T09:06:07;4.57;;;2.45;;
11823;SDS011;5969;50.780;7.726;2022-10-17T09:08:39;5.03;;;2.75;;
11823;SDS011;5969;50.780;7.726;2022-10-17T09:11:14;2.83;;;2.55;;
11823;SDS011;5969;50.780;7.726;2022-10-17T09:13:51;4.47;;;3.00;;
11823;SDS011;5969;50.780;7.726;2022-10-17T09:16:31;3.72;;;2.47;;
11823;SDS011;5969;50.780;7.726;2022-10-17T09:19:11;5.38;;;2.70;;
11823;SDS011;5969;50.780;7.726;2022-10-17T09:21:44;5.88;;;3.08;;
11823;SDS011;5969;50.780;7.726;2022-10-17T09:24:15;8.13;;;2.35;;
11823;SDS011;5969;50.780;7.726;2022-10-17T09:26:46;7.05;;;2.80;;
11823;SDS011;5969;50.780;7.726;2022-10-17T09:29:14;4.68;;;2.50;;
11823;SDS011;5969;50.780;7.726;2022-10-17T09:31:50;3.25;;;2.45;;
11823;SDS011;5969;50.780;7.726;2022-10-17T09:34:22;3.17;;;2.30;;
11823;SDS011;5969;50.780;7.726;2022-10-17T09:36:52;4.72;;;2.63;;
11823;SDS011;5969;50.780;7.726;2022-10-17T09:39:21;3.65;;;2.40;;
11823;SDS011;5969;50.780;7.726;2022-10-17T09:41:50;3.47;;;2.50;;
11823;SDS011;5969;50.780;7.726;2022-10-17T09:44:21;4.80;;;2.38;;
11823;SDS011;5969;50.780;7.726;2022-10-17T09:47:00;5.93;;;3.00;;
11823;SDS011;5969;50.780;7.726;2022-10-17T09:49:44;5.85;;;2.65;;
11823;SDS011;5969;50.780;7.726;2022-10-17T09:52:13;4.03;;;2.58;;
11823;SDS011;5969;50.780;7.726;2022-10-17T09:54:42;4.07;;;2.50;;
11823;SDS011;5969;50.780;7.726;2022-10-17T09:57:11;4.10;;;2.80;;
11823;SDS011;5969;50.780;7.726;2022-10-17T09:59:41;7.35;;;2.85;;
11823;SDS011;5969;50.780;7.726;2022-10-17T10:02:17;3.83;;;2.42;;
11823;SDS011;5969;50.780;7.726;2022-10-17T10:04:52;4.47;;;2.50;;
11823;SDS011;5969;50.780;7.726;2022-10-17T10:07:22;8.90;;;2.85;;
11823;SDS011;5969;50.780;7.726;2022-10-17T10:09:49;4.72;;;2.80;;
11823;SDS011;5969;50.780;7.726;2022-10-17T10:12:17;3.28;;;2.55;;
11823;SDS011;5969;50.780;7.726;2022-10-17T10:14:45;4.13;;;2.42;;
11823;SDS011;5969;50.780;7.726;2022-10-17T10:17:27;4.00;;;2.50;;
11823;SDS011;5969;50.780;7.726;2022-10-17T10:19:59;4.50;;;2.53;;
11823;SDS011;5969;50.780;7.726;2022-10-17T10:22:27;6.88;;;2.85;;
11823;SDS011;5969;50.780;7.726;2022-10-17T10:25:05;4.97;;;2.60;;
11823;SDS011;5969;50.780;7.726;2022-10-17T10:27:33;4.40;;;2.65;;
11823;SDS011;5969;50.780;7.726;2022-10-17T10:30:01;6.38;;;2.70;;
11823;SDS011;5969;50.780;7.726;2022-10-17T10:32:30;4.35;;;2.60;;
11823;SDS011;5969;50.780;7.726;2022-10-17T10:34:59;4.60;;;2.80;;
11823;SDS011;5969;50.780;7.726;2022-10-17T10:37:32;4.95;;;2.78;;
11823;SDS011;5969;50.780;7.726;2022-10-17T10:40:04;6.00;;;2.80;;
11823;SDS011;5969;50.780;7.726;2022-10-17T10:42:42;4.63;;;2.42;;
11823;SDS011;5969;50.780;7.726;2022-10-17T10:45:14;7.70;;;2.90;;
11823;SDS011;5969;50.780;7.726;2022-10-17T10:47:50;6.97;;;2.53;;
11823;SDS011;5969;50.780;7.726;2022-10-17T10:50:21;5.35;;;2.70;;
11823;SDS011;5969;50.780;7.726;2022-10-17T10:52:54;5.53;;;2.50;;
11823;SDS011;5969;50.780;7.726;2022-10-17T10:55:33;4.55;;;2.75;;
11823;SDS011;5969;50.780;7.726;2022-10-17T10:58:03;5.80;;;2.22;;
11823;SDS011;5969;50.780;7.726;2022-10-17T11:00:39;2.58;;;2.28;;
11823;SDS011;5969;50.780;7.726;2022-10-17T11:03:10;3.42;;;2.75;;
11823;SDS011;5969;50.780;7.726;2022-10-17T11:05:42;3.45;;;2.30;;
11823;SDS011;5969;50.780;7.726;2022-10-17T11:08:16;5.70;;;2.50;;
11823;SDS011;5969;50.780;7.726;2022-10-17T11:10:58;3.25;;;2.40;;
11823;SDS011;5969;50.780;7.726;2022-10-17T11:13:30;5.22;;;2.40;;
11823;SDS011;5969;50.780;7.726;2022-10-17T11:16:14;7.18;;;2.35;;
11823;SDS011;5969;50.780;7.726;2022-10-17T11:18:49;6.93;;;2.15;;
11823;SDS011;5969;50.780;7.726;2022-10-17T11:21:22;4.82;;;2.22;;
11823;SDS011;5969;50.780;7.726;2022-10-17T11:24:00;3.75;;;2.22;;
11823;SDS011;5969;50.780;7.726;2022-10-17T11:26:34;5.15;;;2.30;;
11823;SDS011;5969;50.780;7.726;2022-10-17T11:29:05;3.85;;;2.50;;
11823;SDS011;5969;50.780;7.726;2022-10-17T11:31:36;3.58;;;2.28;;
11823;SDS011;5969;50.780;7.726;2022-10-17T11:34:08;4.32;;;2.50;;
11823;SDS011;5969;50.780;7.726;2022-10-17T11:36:39;4.18;;;2.15;;
11823;SDS011;5969;50.780;7.726;2022-10-17T11:39:10;3.38;;;2.15;;
11823;SDS011;5969;50.780;7.726;2022-10-17T11:41:42;4.45;;;2.20;;
11823;SDS011;5969;50.780;7.726;2022-10-17T11:44:14;4.07;;;2.20;;
11823;SDS011;5969;50.780;7.726;2022-10-17T11:46:45;5.53;;;2.10;;
11823;SDS011;5969;50.780;7.726;2022-10-17T11:49:18;4.90;;;2.20;;
11823;SDS011;5969;50.780;7.726;2022-10-17T11:51:49;7.25;;;1.95;;
11823;SDS011;5969;50.780;7.726;2022-10-17T11:54:23;3.95;;;2.30;;
11823;SDS011;5969;50.780;7.726;2022-10-17T11:56:57;8.27;;;3.05;;
11823;SDS011;5969;50.780;7.726;2022-10-17T11:59:44;4.35;;;2.35;;
11823;SDS011;5969;50.780;7.726;2022-10-17T12:02:20;5.25;;;2.33;;
11823;SDS011;5969;50.780;7.726;2022-10-17T12:04:57;5.88;;;2.30;;
11823;SDS011;5969;50.780;7.726;2022-10-17T12:07:32;3.65;;;2.30;;
11823;SDS011;5969;50.780;7.726;2022-10-17T12:10:06;10.63;;;2.30;;
11823;SDS011;5969;50.780;7.726;2022-10-17T12:12:43;6.32;;;2.40;;
11823;SDS011;5969;50.780;7.726;2022-10-17T12:15:27;3.08;;;2.22;;
11823;SDS011;5969;50.780;7.726;2022-10-17T12:17:56;6.47;;;2.80;;
11823;SDS011;5969;50.780;7.726;2022-10-17T12:20:31;5.50;;;2.38;;
11823;SDS011;5969;50.780;7.726;2022-10-17T12:23:01;4.82;;;2.25;;
11823;SDS011;5969;50.780;7.726;2022-10-17T12:25:32;6.75;;;2.60;;
11823;SDS011;5969;50.780;7.726;2022-10-17T12:28:09;6.82;;;2.70;;
11823;SDS011;5969;50.780;7.726;2022-10-17T12:30:48;3.88;;;2.28;;
11823;SDS011;5969;50.780;7.726;2022-10-17T12:33:17;5.15;;;2.40;;
11823;SDS011;5969;50.780;7.726;2022-10-17T12:35:48;6.43;;;2.75;;
11823;SDS011;5969;50.780;7.726;2022-10-17T12:38:23;5.43;;;2.33;;
11823;SDS011;5969;50.780;7.726;2022-10-17T12:40:52;5.50;;;2.50;;
11823;SDS011;5969;50.780;7.726;2022-10-17T12:43:32;7.20;;;2.58;;
11823;SDS011;5969;50.780;7.726;2022-10-17T12:46:41;4.85;;;2.45;;
11823;SDS011;5969;50.780;7.726;2022-10-17T12:55:14;4.80;;;2.60;;
11823;SDS011;5969;50.780;7.726;2022-10-17T12:57:47;6.53;;;2.97;;
11823;SDS011;5969;50.780;7.726;2022-10-17T13:00:19;5.25;;;2.58;;
11823;SDS011;5969;50.780;7.726;2022-10-17T13:02:50;4.28;;;2.50;;
11823;SDS011;5969;50.780;7.726;2022-10-17T13:05:21;5.22;;;2.78;;
11823;SDS011;5969;50.780;7.726;2022-10-17T13:07:52;6.63;;;3.08;;
11823;SDS011;5969;50.780;7.726;2022-10-17T13:10:23;7.80;;;2.70;;
11823;SDS011;5969;50.780;7.726;2022-10-17T13:12:53;6.35;;;2.60;;
11823;SDS011;5969;50.780;7.726;2022-10-17T13:15:28;6.18;;;2.85;;
11823;SDS011;5969;50.780;7.726;2022-10-17T13:17:56;5.43;;;2.58;;
11823;SDS011;5969;50.780;7.726;2022-10-17T13:20:24;7.65;;;2.55;;
11823;SDS011;5969;50.780;7.726;2022-10-17T13:25:25;6.10;;;2.20;;
11823;SDS011;5969;50.780;7.726;2022-10-17T13:28:03;7.63;;;2.80;;
11823;SDS011;5969;50.780;7.726;2022-10-17T13:30:32;3.90;;;2.70;;
11823;SDS011;5969;50.780;7.726;2022-10-17T13:33:00;7.93;;;2.65;;
11823;SDS011;5969;50.780;7.726;2022-10-17T13:35:28;6.53;;;2.55;;
11823;SDS011;5969;50.780;7.726;2022-10-17T13:37:58;6.63;;;2.60;;
11823;SDS011;5969;50.780;7.726;2022-10-17T13:40:29;6.80;;;2.60;;
11823;SDS011;5969;50.780;7.726;2022-10-17T13:43:03;7.03;;;3.03;;
11823;SDS011;5969;50.780;7.726;2022-10-17T13:45:35;5.28;;;2.90;;
11823;SDS011;5969;50.780;7.726;2022-10-17T13:48:04;7.00;;;3.00;;
11823;SDS011;5969;50.780;7.726;2022-10-17T13:50:35;5.03;;;2.85;;
11823;SDS011;5969;50.780;7.726;2022-10-17T13:53:07;9.48;;;2.83;;
11823;SDS011;5969;50.780;7.726;2022-10-17T13:55:51;5.07;;;2.90;;
11823;SDS011;5969;50.780;7.726;2022-10-17T13:58:19;6.43;;;2.97;;
11823;SDS011;5969;50.780;7.726;2022-10-17T14:00:46;4.45;;;2.65;;
11823;SDS011;5969;50.780;7.726;2022-10-17T14:03:14;3.75;;;2.90;;
11823;SDS011;5969;50.780;7.726;2022-10-17T14:05:58;7.63;;;2.72;;
11823;SDS011;5969;50.780;7.726;2022-10-17T14:08:29;6.53;;;2.92;;
11823;SDS011;5969;50.780;7.726;2022-10-17T14:10:58;3.60;;;2.92;;
11823;SDS011;5969;50.780;7.726;2022-10-17T14:13:26;4.28;;;2.83;;
11823;SDS011;5969;50.780;7.726;2022-10-17T14:15:58;7.22;;;2.78;;
11823;SDS011;5969;50.780;7.726;2022-10-17T14:18:27;3.03;;;2.70;;
11823;SDS011;5969;50.780;7.726;2022-10-17T14:20:56;5.78;;;2.70;;
11823;SDS011;5969;50.780;7.726;2022-10-17T14:23:35;5.05;;;3.10;;
11823;SDS011;5969;50.780;7.726;2022-10-17T14:26:05;7.55;;;3.20;;
11823;SDS011;5969;50.780;7.726;2022-10-17T14:28:41;4.05;;;2.97;;
11823;SDS011;5969;50.780;7.726;2022-10-17T14:33:57;6.95;;;2.75;;
11823;SDS011;5969;50.780;7.726;2022-10-17T14:36:30;5.47;;;2.90;;
11823;SDS011;5969;50.780;7.726;2022-10-17T14:39:02;7.15;;;2.70;;
11823;SDS011;5969;50.780;7.726;2022-10-17T14:41:33;7.25;;;3.22;;
11823;SDS011;5969;50.780;7.726;2022-10-17T14:44:03;4.85;;;2.72;;
11823;SDS011;5969;50.780;7.726;2022-10-17T14:46:32;5.93;;;2.65;;
11823;SDS011;5969;50.780;7.726;2022-10-17T14:49:03;6.45;;;2.78;;
11823;SDS011;5969;50.780;7.726;2022-10-17T14:51:31;4.13;;;2.75;;
11823;SDS011;5969;50.780;7.726;2022-10-17T14:54:03;5.75;;;2.90;;
11823;SDS011;5969;50.780;7.726;2022-10-17T14:56:43;7.38;;;2.88;;
11823;SDS011;5969;50.780;7.726;2022-10-17T14:59:16;6.30;;;2.92;;
11823;SDS011;5969;50.780;7.726;2022-10-17T15:01:46;8.13;;;3.13;;
11823;SDS011;5969;50.780;7.726;2022-10-17T15:04:13;6.38;;;2.80;;
11823;SDS011;5969;50.780;7.726;2022-10-17T15:06:40;4.95;;;2.67;;
11823;SDS011;5969;50.780;7.726;2022-10-17T15:09:07;5.05;;;2.70;;
11823;SDS011;5969;50.780;7.726;2022-10-17T15:11:35;3.40;;;2.72;;
11823;SDS011;5969;50.780;7.726;2022-10-17T15:14:03;8.95;;;2.92;;
11823;SDS011;5969;50.780;7.726;2022-10-17T15:16:31;6.90;;;2.35;;
11823;SDS011;5969;50.780;7.726;2022-10-17T15:18:59;3.75;;;2.40;;
11823;SDS011;5969;50.780;7.726;2022-10-17T15:21:29;5.10;;;2.47;;
11823;SDS011;5969;50.780;7.726;2022-10-17T15:23:58;5.00;;;2.63;;
11823;SDS011;5969;50.780;7.726;2022-10-17T15:26:27;5.47;;;2.40;;
11823;SDS011;5969;50.780;7.726;2022-10-17T15:28:56;8.68;;;2.60;;
11823;SDS011;5969;50.780;7.726;2022-10-17T15:31:25;3.88;;;2.70;;
11823;SDS011;5969;50.780;7.726;2022-10-17T15:33:52;7.03;;;2.70;;
11823;SDS011;5969;50.780;7.726;2022-10-17T15:36:20;4.35;;;2.40;;